createdAt,value
2017-11-15T00:00:10.119Z,91.30
2017-11-15T00:02:38.165Z,91.30
2017-11-15T00:05:06.385Z,91.30
2017-11-15T00:07:33.818Z,91.30
2017-11-15T00:10:01.314Z,91.30
2017-11-15T00:12:29.512Z,91.40
2017-11-15T00:14:56.937Z,91.30
2017-11-15T00:17:25.155Z,91.30
2017-11-15T00:19:52.577Z,91.30
2017-11-15T00:22:32.773Z,91.30
2017-11-15T00:25:00.206Z,91.30
2017-11-15T00:27:27.694Z,91.30
2017-11-15T00:29:55.140Z,91.30
2017-11-15T00:32:22.579Z,91.30
2017-11-15T00:34:50.062Z,91.30
2017-11-15T00:37:17.538Z,91.30
2017-11-15T00:39:45.078Z,91.30
2017-11-15T00:42:12.511Z,91.30
2017-11-15T00:44:39.949Z,91.30
2017-11-15T00:47:08.159Z,91.30
2017-11-15T00:49:35.598Z,91.30
2017-11-15T00:52:03.078Z,91.30
2017-11-15T00:54:30.523Z,91.30
2017-11-15T00:56:57.942Z,91.30
2017-11-15T00:59:26.150Z,91.30
2017-11-15T01:01:53.579Z,91.60
2017-11-15T01:04:21.775Z,91.30
2017-11-15T01:06:49.213Z,91.30
2017-11-15T01:09:17.432Z,91.30
2017-11-15T01:11:44.885Z,91.30
2017-11-15T01:14:12.341Z,91.30
2017-11-15T01:16:39.780Z,91.30
2017-11-15T01:19:07.207Z,91.30
2017-11-15T01:21:35.430Z,91.30
2017-11-15T01:24:02.868Z,91.30
2017-11-15T01:26:30.308Z,91.30
2017-11-15T01:28:58.517Z,91.30
2017-11-15T01:31:25.981Z,91.30
2017-11-15T01:33:53.445Z,91.30
2017-11-15T01:36:20.885Z,91.30
2017-11-15T01:38:48.314Z,91.30
2017-11-15T01:41:16.516Z,91.30
2017-11-15T01:43:43.957Z,91.30
2017-11-15T01:46:11.393Z,91.30
2017-11-15T01:48:39.590Z,91.30
2017-11-15T01:51:07.032Z,91.30
2017-11-15T01:53:35.262Z,91.30
2017-11-15T01:56:02.682Z,91.30
2017-11-15T01:58:30.122Z,91.30
2017-11-15T02:01:10.110Z,91.60
2017-11-15T02:03:37.589Z,91.30
2017-11-15T02:06:05.022Z,91.30
2017-11-15T02:08:32.453Z,91.30
2017-11-15T02:10:59.903Z,91.30
2017-11-15T02:13:28.110Z,91.40
2017-11-15T02:15:55.551Z,91.40
2017-11-15T02:18:23.003Z,91.40
2017-11-15T02:20:50.428Z,91.30
2017-11-15T02:23:18.654Z,91.60
2017-11-15T02:25:46.106Z,91.30
2017-11-15T02:28:13.565Z,91.30
2017-11-15T02:30:41.003Z,91.30
2017-11-15T02:33:08.450Z,91.30
2017-11-15T02:35:36.650Z,91.30
2017-11-15T02:38:04.114Z,91.30
2017-11-15T02:40:31.570Z,91.30
2017-11-15T02:42:59.007Z,91.30
2017-11-15T02:45:26.434Z,91.30
2017-11-15T02:47:54.655Z,91.30
2017-11-15T02:50:22.085Z,91.30
2017-11-15T02:52:49.518Z,91.30
2017-11-15T02:55:17.730Z,91.30
2017-11-15T02:57:45.153Z,91.30
2017-11-15T03:00:12.671Z,91.30
2017-11-15T03:02:40.125Z,91.30
2017-11-15T03:05:07.556Z,91.30
2017-11-15T03:07:34.977Z,91.30
2017-11-15T03:10:02.493Z,91.30
2017-11-15T03:12:29.947Z,91.30
2017-11-15T03:14:57.363Z,91.30
2017-11-15T03:17:25.572Z,91.30
2017-11-15T03:19:53.045Z,91.30
2017-11-15T03:22:20.497Z,91.30
2017-11-15T03:24:47.942Z,91.30
2017-11-15T03:27:15.374Z,91.30
2017-11-15T03:29:43.581Z,91.30
2017-11-15T03:32:11.022Z,91.30
2017-11-15T03:34:38.454Z,91.30
2017-11-15T03:37:06.669Z,91.30
2017-11-15T03:39:34.122Z,91.30
2017-11-15T03:42:01.586Z,91.30
2017-11-15T03:44:29.018Z,91.30
2017-11-15T03:46:56.454Z,91.30
2017-11-15T03:49:24.650Z,91.30
2017-11-15T03:51:52.073Z,91.30
2017-11-15T03:54:19.513Z,91.30
2017-11-15T03:56:46.950Z,91.30
2017-11-15T03:59:14.398Z,91.30
2017-11-15T04:01:41.859Z,91.30
2017-11-15T04:04:09.286Z,91.30
2017-11-15T04:06:36.773Z,91.30
2017-11-15T04:09:04.219Z,91.30
2017-11-15T04:11:31.641Z,91.30
2017-11-15T04:13:59.867Z,91.30
2017-11-15T04:16:27.308Z,91.30
2017-11-15T04:18:54.770Z,91.30
2017-11-15T04:21:22.207Z,91.30
2017-11-15T04:23:49.699Z,91.30
2017-11-15T04:26:17.154Z,91.30
2017-11-15T04:28:44.606Z,91.30
2017-11-15T04:31:12.052Z,91.30
2017-11-15T04:33:39.513Z,91.30
2017-11-15T04:36:06.951Z,91.40
2017-11-15T04:38:34.434Z,91.40
2017-11-15T04:41:01.862Z,91.40
2017-11-15T04:43:29.290Z,91.40
2017-11-15T04:45:57.497Z,91.60
2017-11-15T04:48:24.950Z,91.40
2017-11-15T04:50:52.377Z,91.40
2017-11-15T04:53:19.830Z,91.40
2017-11-15T04:55:48.772Z,91.40
2017-11-15T04:58:16.237Z,91.40
2017-11-15T05:00:43.677Z,91.40
2017-11-15T05:03:11.111Z,91.40
2017-11-15T05:05:39.308Z,91.50
2017-11-15T05:08:06.750Z,91.50
2017-11-15T05:10:34.250Z,91.50
2017-11-15T05:13:01.702Z,91.50
2017-11-15T05:15:29.146Z,91.50
2017-11-15T05:17:56.617Z,91.50
2017-11-15T05:20:24.078Z,91.50
2017-11-15T05:22:51.514Z,91.50
2017-11-15T05:25:18.941Z,91.50
2017-11-15T05:27:47.149Z,91.60
2017-11-15T05:30:14.590Z,91.60
2017-11-15T05:32:42.022Z,91.60
2017-11-15T05:35:10.247Z,91.60
2017-11-15T05:37:37.722Z,91.60
2017-11-15T05:40:05.151Z,91.60
2017-11-15T05:42:32.574Z,91.60
2017-11-15T05:45:00.789Z,91.90
2017-11-15T05:47:28.246Z,91.60
2017-11-15T05:49:55.721Z,91.60
2017-11-15T05:52:23.166Z,91.60
2017-11-15T05:54:50.600Z,91.60
2017-11-15T05:57:18.023Z,91.60
2017-11-15T05:59:47.070Z,91.60
2017-11-15T06:02:14.590Z,91.60
2017-11-15T06:04:42.793Z,91.60
2017-11-15T06:07:10.237Z,91.60
2017-11-15T06:09:37.818Z,91.60
2017-11-15T06:12:05.272Z,91.60
2017-11-15T06:14:32.724Z,91.60
2017-11-15T06:17:00.136Z,91.60
2017-11-15T06:19:27.545Z,91.60
2017-11-15T06:21:55.058Z,91.60
2017-11-15T06:24:22.463Z,91.60
2017-11-15T06:26:49.867Z,91.60
2017-11-15T06:29:18.140Z,91.60
2017-11-15T06:31:45.551Z,91.60
2017-11-15T06:34:12.933Z,91.60
2017-11-15T06:36:40.627Z,91.60
2017-11-15T06:39:07.918Z,91.60
2017-11-15T06:41:35.370Z,91.70
2017-11-15T06:44:02.788Z,91.60
2017-11-15T06:46:31.005Z,91.70
2017-11-15T06:48:58.438Z,91.60
2017-11-15T06:51:25.874Z,91.60
2017-11-15T06:53:54.076Z,91.60
2017-11-15T06:56:21.498Z,91.60
2017-11-15T06:58:48.934Z,91.60
2017-11-15T07:01:16.369Z,91.60
2017-11-15T07:03:43.839Z,91.60
2017-11-15T07:06:11.275Z,91.60
2017-11-15T07:08:38.707Z,91.60
2017-11-15T07:11:07.020Z,91.60
2017-11-15T07:13:34.457Z,91.60
2017-11-15T07:16:01.885Z,91.60
2017-11-15T07:18:30.105Z,91.70
2017-11-15T07:20:57.583Z,91.60
2017-11-15T07:23:25.002Z,91.60
2017-11-15T07:25:52.441Z,91.60
2017-11-15T07:28:20.668Z,91.70
2017-11-15T07:30:48.092Z,91.60
2017-11-15T07:33:15.548Z,91.60
2017-11-15T07:35:42.971Z,91.60
2017-11-15T07:38:10.399Z,91.60
2017-11-15T07:40:37.873Z,91.70
2017-11-15T07:43:06.066Z,91.70
2017-11-15T07:45:34.258Z,91.70
2017-11-15T07:48:01.704Z,91.60
2017-11-15T07:50:29.894Z,91.70
2017-11-15T07:52:57.322Z,91.60
2017-11-15T07:55:26.375Z,91.70
2017-11-15T07:57:53.809Z,91.70
2017-11-15T08:00:21.240Z,91.70
2017-11-15T08:02:49.451Z,91.70
2017-11-15T08:05:16.881Z,91.70
2017-11-15T08:07:45.075Z,91.60
2017-11-15T08:10:12.541Z,91.70
2017-11-15T08:12:40.025Z,91.60
2017-11-15T08:15:07.443Z,91.60
2017-11-15T08:17:34.926Z,91.70
2017-11-15T08:20:02.371Z,91.70
2017-11-15T08:22:29.798Z,91.70
2017-11-15T08:24:57.266Z,91.70
2017-11-15T08:27:25.460Z,91.70
2017-11-15T08:29:52.891Z,91.70
2017-11-15T08:32:20.390Z,91.70
2017-11-15T08:34:47.848Z,91.70
2017-11-15T08:37:15.301Z,91.70
2017-11-15T08:39:42.757Z,91.60
2017-11-15T08:42:10.187Z,91.70
2017-11-15T08:44:37.690Z,91.60
2017-11-15T08:47:05.258Z,91.70
2017-11-15T08:49:32.691Z,91.70
2017-11-15T08:52:00.143Z,91.70
2017-11-15T08:54:27.586Z,91.70
2017-11-15T08:56:55.014Z,91.70
2017-11-15T08:59:23.218Z,91.70
2017-11-15T09:01:50.666Z,91.70
2017-11-15T09:04:18.150Z,91.70
2017-11-15T09:06:45.610Z,91.70
2017-11-15T09:09:13.166Z,91.70
2017-11-15T09:11:40.621Z,91.70
2017-11-15T09:14:08.054Z,91.70
2017-11-15T09:16:35.528Z,91.70
2017-11-15T09:19:02.995Z,91.70
2017-11-15T09:21:30.457Z,91.70
2017-11-15T09:23:57.906Z,91.70
2017-11-15T09:26:25.379Z,91.70
2017-11-15T09:28:52.826Z,91.70
2017-11-15T09:31:20.376Z,91.70
2017-11-15T09:33:47.813Z,91.70
2017-11-15T09:36:15.251Z,91.70
2017-11-15T09:38:43.463Z,91.60
2017-11-15T09:41:10.931Z,91.60
2017-11-15T09:43:38.482Z,91.60
2017-11-15T09:46:05.923Z,91.60
2017-11-15T09:48:33.409Z,91.60
2017-11-15T09:51:00.844Z,91.60
2017-11-15T09:53:28.305Z,91.60
2017-11-15T09:55:55.714Z,91.60
2017-11-15T09:58:23.922Z,91.60
2017-11-15T10:00:51.398Z,91.60
2017-11-15T10:03:18.847Z,91.60
2017-11-15T10:05:46.280Z,91.60
2017-11-15T10:08:13.770Z,91.60
2017-11-15T10:10:41.238Z,91.60
2017-11-15T10:13:08.664Z,91.60
2017-11-15T10:15:36.144Z,91.60
2017-11-15T10:18:03.602Z,91.60
2017-11-15T10:20:31.057Z,91.60
2017-11-15T10:22:58.511Z,91.60
2017-11-15T10:25:25.984Z,91.60
2017-11-15T10:27:53.427Z,91.50
2017-11-15T10:30:20.881Z,91.60
2017-11-15T10:32:48.310Z,91.50
2017-11-15T10:35:15.806Z,91.50
2017-11-15T10:37:43.362Z,91.50
2017-11-15T10:40:10.933Z,91.50
2017-11-15T10:42:38.282Z,91.50
2017-11-15T10:45:05.838Z,91.00
2017-11-15T10:47:33.276Z,91.00
2017-11-15T10:50:00.750Z,91.00
2017-11-15T10:52:28.200Z,91.00
2017-11-15T10:54:55.675Z,91.00
2017-11-15T10:57:23.134Z,91.00
2017-11-15T10:59:50.683Z,91.00
2017-11-15T11:02:18.119Z,91.00
2017-11-15T11:04:45.567Z,91.00
2017-11-15T11:07:13.038Z,91.00
2017-11-15T11:09:40.511Z,91.00
2017-11-15T11:12:07.962Z,91.00
2017-11-15T11:14:35.426Z,91.00
2017-11-15T11:17:02.878Z,91.00
2017-11-15T11:19:30.323Z,91.00
2017-11-15T11:21:57.842Z,91.00
2017-11-15T11:24:26.042Z,91.00
2017-11-15T11:26:53.620Z,91.00
2017-11-15T11:29:21.086Z,90.90
2017-11-15T11:31:48.542Z,90.90
2017-11-15T11:34:15.963Z,90.90
2017-11-15T11:36:44.283Z,90.90
2017-11-15T11:39:11.733Z,90.90
2017-11-15T11:41:39.199Z,90.90
2017-11-15T11:44:06.750Z,91.20
2017-11-15T11:46:34.208Z,90.90
2017-11-15T11:49:01.665Z,90.90
2017-11-15T11:51:29.111Z,90.90
2017-11-15T11:53:56.550Z,90.90
2017-11-15T11:56:23.986Z,90.90
2017-11-15T11:58:52.200Z,90.80
2017-11-15T12:01:19.671Z,90.80
2017-11-15T12:03:47.128Z,90.80
2017-11-15T12:06:14.692Z,90.80
2017-11-15T12:08:42.131Z,90.80
2017-11-15T12:11:09.608Z,90.80
2017-11-15T12:13:37.203Z,90.80
2017-11-15T12:16:04.629Z,90.80
2017-11-15T12:18:32.069Z,90.90
2017-11-15T12:20:59.528Z,90.80
2017-11-15T12:23:26.958Z,90.80
2017-11-15T12:25:54.454Z,90.80
2017-11-15T12:28:21.892Z,90.80
2017-11-15T12:30:49.359Z,90.80
2017-11-15T12:33:16.827Z,90.80
2017-11-15T12:35:44.267Z,90.80
2017-11-15T12:38:11.738Z,90.80
2017-11-15T12:40:39.173Z,90.80
2017-11-15T12:43:06.646Z,90.80
2017-11-15T12:45:34.099Z,90.80
2017-11-15T12:48:01.562Z,90.70
2017-11-15T12:50:29.015Z,90.70
2017-11-15T12:52:56.455Z,90.70
2017-11-15T12:55:23.903Z,90.70
2017-11-15T12:57:51.394Z,90.70
2017-11-15T13:00:18.838Z,90.70
2017-11-15T13:02:46.289Z,90.70
2017-11-15T13:05:13.788Z,90.70
2017-11-15T13:07:41.412Z,90.70
2017-11-15T13:10:08.888Z,90.60
2017-11-15T13:12:36.358Z,90.70
2017-11-15T13:15:03.814Z,90.70
2017-11-15T13:17:31.238Z,90.70
2017-11-15T13:19:58.787Z,90.70
2017-11-15T13:22:26.277Z,90.60
2017-11-15T13:24:53.749Z,90.60
2017-11-15T13:27:22.808Z,90.60
2017-11-15T13:29:50.229Z,90.60
2017-11-15T13:32:18.459Z,90.60
2017-11-15T13:34:45.914Z,90.60
2017-11-15T13:37:13.362Z,90.60
2017-11-15T13:39:40.812Z,90.70
2017-11-15T13:42:08.278Z,90.60
2017-11-15T13:44:35.732Z,90.70
2017-11-15T13:47:03.163Z,90.60
2017-11-15T13:49:30.650Z,90.60
2017-11-15T13:51:58.109Z,90.70
2017-11-15T13:54:25.574Z,90.60
2017-11-15T13:56:53.027Z,90.60
2017-11-15T13:59:20.468Z,90.70
2017-11-15T14:01:47.908Z,90.70
2017-11-15T14:04:15.364Z,90.70
2017-11-15T14:06:42.799Z,90.70
2017-11-15T14:09:11.027Z,90.70
2017-11-15T14:11:38.474Z,90.70
2017-11-15T14:14:05.942Z,90.70
2017-11-15T14:16:33.384Z,90.70
2017-11-15T14:19:00.843Z,90.70
2017-11-15T14:21:28.314Z,90.70
2017-11-15T14:23:58.544Z,90.70
2017-11-15T14:26:25.997Z,90.70
2017-11-15T14:28:53.459Z,90.70
2017-11-15T14:31:20.890Z,90.70
2017-11-15T14:33:48.375Z,90.70
2017-11-15T14:36:15.814Z,90.70
2017-11-15T14:38:43.270Z,90.70
2017-11-15T14:41:10.738Z,90.70
2017-11-15T14:43:38.179Z,90.70
2017-11-15T14:46:05.619Z,90.70
2017-11-15T14:48:33.079Z,90.80
2017-11-15T14:51:00.586Z,90.80
2017-11-15T14:53:28.122Z,90.80
2017-11-15T14:55:55.677Z,90.80
2017-11-15T14:58:23.154Z,90.80
2017-11-15T15:00:50.594Z,90.80
2017-11-15T15:03:18.162Z,90.80
2017-11-15T15:05:45.702Z,90.80
2017-11-15T15:08:13.122Z,90.80
2017-11-15T15:10:41.348Z,90.80
2017-11-15T15:13:08.794Z,90.80
2017-11-15T15:15:36.240Z,90.80
2017-11-15T15:18:03.702Z,90.80
2017-11-15T15:20:31.126Z,90.80
2017-11-15T15:22:59.331Z,90.80
2017-11-15T15:25:26.896Z,90.80
2017-11-15T15:27:54.363Z,90.80
2017-11-15T15:30:21.811Z,90.80
2017-11-15T15:32:49.257Z,90.80
2017-11-15T15:35:16.748Z,90.90
2017-11-15T15:37:44.198Z,90.90
2017-11-15T15:40:11.774Z,90.90
2017-11-15T15:42:39.974Z,90.90
2017-11-15T15:45:08.205Z,91.00
2017-11-15T15:47:35.764Z,90.90
2017-11-15T15:50:03.223Z,90.90
2017-11-15T15:52:30.766Z,90.90
2017-11-15T15:54:58.254Z,90.90
2017-11-15T15:57:25.704Z,90.90
2017-11-15T15:59:53.249Z,90.90
2017-11-15T16:02:20.814Z,90.90
2017-11-15T16:04:48.279Z,90.90
2017-11-15T16:07:15.875Z,90.90
2017-11-15T16:09:44.095Z,91.10
2017-11-15T16:12:11.534Z,91.10
2017-11-15T16:14:38.966Z,91.10
2017-11-15T16:17:07.182Z,91.10
2017-11-15T16:19:34.632Z,91.10
2017-11-15T16:22:02.058Z,91.10
2017-11-15T16:24:30.273Z,91.10
2017-11-15T16:26:57.742Z,91.10
2017-11-15T16:29:25.194Z,91.10
2017-11-15T16:31:52.650Z,91.00
2017-11-15T16:34:20.111Z,91.00
2017-11-15T16:36:47.547Z,91.00
2017-11-15T16:39:14.988Z,91.00
2017-11-15T16:41:42.431Z,91.00
2017-11-15T16:44:10.651Z,91.00
2017-11-15T16:46:38.106Z,91.00
2017-11-15T16:49:05.562Z,91.00
2017-11-15T16:51:33.007Z,91.00
2017-11-15T16:54:00.490Z,91.00
2017-11-15T16:56:28.050Z,91.00
2017-11-15T16:58:55.494Z,91.00
2017-11-15T17:01:22.946Z,91.00
2017-11-15T17:03:50.419Z,91.00
2017-11-15T17:06:17.877Z,91.00
2017-11-15T17:08:45.438Z,91.00
2017-11-15T17:11:12.990Z,91.00
2017-11-15T17:13:40.446Z,91.00
2017-11-15T17:16:08.005Z,91.00
2017-11-15T17:18:35.469Z,91.00
2017-11-15T17:21:03.890Z,91.00
2017-11-15T17:23:32.115Z,91.00
2017-11-15T17:25:59.551Z,91.00
2017-11-15T17:28:27.030Z,91.00
2017-11-15T17:30:54.602Z,91.00
2017-11-15T17:33:22.149Z,91.00
2017-11-15T17:35:49.591Z,91.10
2017-11-15T17:38:17.078Z,91.10
2017-11-15T17:40:45.274Z,91.10
2017-11-15T17:43:13.502Z,91.10
2017-11-15T17:45:41.067Z,91.10
2017-11-15T17:48:08.526Z,91.10
2017-11-15T17:50:35.973Z,91.10
2017-11-15T17:53:03.419Z,91.10
2017-11-15T17:55:30.877Z,91.10
2017-11-15T17:57:58.315Z,91.10
2017-11-15T18:00:25.768Z,91.10
2017-11-15T18:02:53.255Z,91.10
2017-11-15T18:05:20.695Z,91.10
2017-11-15T18:07:48.142Z,91.10
2017-11-15T18:10:15.617Z,91.10
2017-11-15T18:12:43.061Z,91.10
2017-11-15T18:15:10.514Z,91.10
2017-11-15T18:17:37.997Z,91.10
2017-11-15T18:20:05.470Z,91.10
2017-11-15T18:22:33.027Z,91.20
2017-11-15T18:25:00.583Z,91.10
2017-11-15T18:27:28.024Z,91.20
2017-11-15T18:29:55.467Z,91.10
2017-11-15T18:32:23.041Z,91.20
2017-11-15T18:34:50.498Z,91.20
2017-11-15T18:37:17.966Z,91.20
2017-11-15T18:39:45.415Z,91.20
2017-11-15T18:42:12.938Z,91.20
2017-11-15T18:44:40.396Z,91.20
2017-11-15T18:47:07.831Z,91.20
2017-11-15T18:49:35.266Z,91.20
2017-11-15T18:52:03.480Z,91.20
2017-11-15T18:54:30.913Z,91.10
2017-11-15T18:56:58.360Z,91.20
2017-11-15T18:59:26.671Z,91.20
2017-11-15T19:01:54.150Z,91.20
2017-11-15T19:04:21.570Z,91.20
2017-11-15T19:06:49.046Z,91.20
2017-11-15T19:09:16.758Z,91.20
2017-11-15T19:11:44.971Z,91.20
2017-11-15T19:14:13.226Z,91.20
2017-11-15T19:16:40.662Z,91.20
2017-11-15T19:19:08.874Z,91.20
2017-11-15T19:21:36.326Z,91.20
2017-11-15T19:24:03.815Z,91.20
2017-11-15T19:26:31.263Z,91.20
2017-11-15T19:28:58.811Z,91.20
2017-11-15T19:31:26.286Z,91.20
2017-11-15T19:33:53.726Z,91.20
2017-11-15T19:36:21.181Z,91.20
2017-11-15T19:38:48.658Z,91.20
2017-11-15T19:41:16.097Z,91.20
2017-11-15T19:43:43.562Z,91.20
2017-11-15T19:46:11.043Z,91.20
2017-11-15T19:48:38.489Z,91.20
2017-11-15T19:51:05.948Z,91.20
2017-11-15T19:53:33.402Z,91.20
2017-11-15T19:56:00.846Z,91.20
2017-11-15T19:58:28.305Z,91.20
2017-11-15T20:00:55.751Z,91.20
2017-11-15T20:03:23.210Z,91.20
2017-11-15T20:05:50.678Z,91.20
2017-11-15T20:08:18.123Z,91.50
2017-11-15T20:10:45.571Z,91.20
2017-11-15T20:13:13.026Z,91.20
2017-11-15T20:15:40.511Z,91.20
2017-11-15T20:18:07.952Z,91.30
2017-11-15T20:20:35.513Z,91.30
2017-11-15T20:23:02.934Z,91.30
2017-11-15T20:25:31.149Z,91.30
2017-11-15T20:27:58.611Z,91.20
2017-11-15T20:30:26.058Z,91.20
2017-11-15T20:32:53.619Z,91.20
2017-11-15T20:35:21.056Z,91.30
2017-11-15T20:37:48.490Z,91.30
2017-11-15T20:40:16.738Z,91.30
2017-11-15T20:42:44.167Z,91.30
2017-11-15T20:45:11.610Z,91.30
2017-11-15T20:47:39.049Z,91.30
2017-11-15T20:50:06.518Z,91.30
2017-11-15T20:52:33.966Z,91.30
2017-11-15T20:55:01.407Z,91.30
2017-11-15T20:57:29.622Z,91.40
2017-11-15T20:59:57.130Z,91.30
2017-11-15T21:02:25.375Z,91.20
2017-11-15T21:04:52.934Z,91.30
2017-11-15T21:07:20.374Z,91.40
2017-11-15T21:09:47.816Z,91.40
2017-11-15T21:12:15.302Z,91.40
2017-11-15T21:14:42.734Z,91.40
2017-11-15T21:17:10.211Z,91.40
2017-11-15T21:19:37.700Z,91.40
2017-11-15T21:22:06.011Z,91.40
2017-11-15T21:24:33.430Z,91.40
2017-11-15T21:27:01.658Z,91.40
2017-11-15T21:29:29.119Z,91.40
2017-11-15T21:31:56.550Z,91.40
2017-11-15T21:34:24.022Z,91.40
2017-11-15T21:36:51.464Z,91.40
2017-11-15T21:39:18.911Z,91.40
2017-11-15T21:41:47.122Z,91.40
2017-11-15T21:44:15.333Z,91.40
2017-11-15T21:46:42.794Z,91.40
2017-11-15T21:49:10.237Z,91.40
2017-11-15T21:51:37.787Z,91.50
2017-11-15T21:54:05.222Z,91.50
2017-11-15T21:56:33.447Z,91.40
2017-11-15T21:59:00.886Z,91.40
2017-11-15T22:01:28.319Z,91.50
2017-11-15T22:03:55.762Z,91.50
2017-11-15T22:06:23.974Z,91.50
2017-11-15T22:08:51.397Z,91.50
2017-11-15T22:11:19.618Z,91.50
2017-11-15T22:13:47.096Z,91.50
2017-11-15T22:16:14.534Z,91.50
2017-11-15T22:18:41.990Z,91.50
2017-11-15T22:21:09.446Z,91.50
2017-11-15T22:23:36.883Z,91.50
2017-11-15T22:26:04.358Z,91.50
2017-11-15T22:28:31.822Z,91.50
2017-11-15T22:30:59.262Z,91.50
2017-11-15T22:33:26.701Z,91.50
2017-11-15T22:35:54.187Z,91.50
2017-11-15T22:38:21.663Z,91.50
2017-11-15T22:40:49.103Z,91.50
2017-11-15T22:43:16.568Z,91.50
2017-11-15T22:45:44.798Z,91.50
2017-11-15T22:48:12.244Z,91.50
2017-11-15T22:50:39.688Z,91.50
2017-11-15T22:53:07.120Z,91.60
2017-11-15T22:55:35.433Z,91.60
2017-11-15T22:58:02.844Z,91.60
2017-11-15T23:00:31.063Z,91.60
2017-11-15T23:02:58.557Z,91.60
2017-11-15T23:05:25.999Z,91.60
2017-11-15T23:07:53.437Z,91.60
2017-11-15T23:10:20.914Z,91.60
2017-11-15T23:12:48.350Z,91.60
2017-11-15T23:15:15.806Z,91.60
2017-11-15T23:17:43.252Z,91.60
2017-11-15T23:20:10.686Z,91.60
2017-11-15T23:22:38.918Z,91.60
2017-11-15T23:25:06.378Z,91.60
2017-11-15T23:27:33.814Z,91.60
2017-11-15T23:30:01.313Z,92.00
2017-11-15T23:32:28.838Z,91.60
2017-11-15T23:34:56.284Z,91.60
2017-11-15T23:37:23.730Z,91.60
2017-11-15T23:39:51.206Z,91.60
2017-11-15T23:42:18.666Z,91.60
2017-11-15T23:44:46.130Z,91.60
2017-11-15T23:47:13.678Z,91.70
2017-11-15T23:49:41.127Z,91.60
2017-11-15T23:52:08.566Z,91.70
2017-11-15T23:54:36.014Z,91.70
2017-11-15T23:57:04.230Z,92.10
2017-11-15T23:59:31.686Z,92.10
